Airfield :
LOGIN :

Register | Disclaimer

   EN    FR    IT 

 










Legend :    VFR   Marginal VFR   IFR   Intensive IFR   Very Intensive IFR
Visi :
Ceiling :
>= 8 km
>= 3000ft
5 to 8 km
1000 to 3000 ft
1500m to 5 km
500 to 1000 ft
800 to 1500m
200 to 500 ft
< 800m
< 200 ft
Symbols :   Thunderstorms  Fog  Heavy snow  Heavy precipitations  Wind > 20 kt
SIGMETs :     Misc.  Thunderstorms  Icing  Turbulence  Mountain Waves  Volcanic Ashes







- Airport Elevation : 163 ft
- IATA code : DGX


EGDX - St Athan

CURRENT METAR :
  • 200850Z 09005KT 3500 -DZ OVC002 05/05 Q0998 AMB

EXPIRED METARs :
  • 200750Z AUTO 10007KT 3700 -RA BKN002/// BKN012/// 05/05 Q0998
  • 200650Z AUTO 09007KT 3600 -DZ BKN002/// SCT010/// 04/04 Q0999

TAF TAF EGDX
Valid from the 20 at 09:00 until the 20 at 18:00 UTC


200758Z 2009/2018 09006KT 9999 BKN008
TEMPO 2009/2015 5000 RA BKN005
PROB40
TEMPO 2009/2015 2500 RADZ SCT002
BECMG 2013/2015 28015G25KT
No reported NOTAMs for that airfield.
2 SIGMETs reported for the London FIR (EGTT) :
 
Severe icing
EGTT SIGMET 03 VALID 200900/201100 EGRR
EGTT LONDON FIR SEV ICE OBS WI N5153 E00218 - N5130 E00200 - N5106 E00155 - N5040 E00128 - N5027 E00054 - N5238 W00530 - N5426 W00530 - N5153 E00218 FL020/120 MOV ENE 05KT NC=
Severe turbulence
EGTT SIGMET 02 VALID 200700/201100 EGRR
EGTT LONDON FIR SEV TURB FCST SW OF LINE N5040 W00800 - N4956 W00220 SFC/FL060 MOV ESE 30KT NC=



MET'MAP, your aeronautical weather chart ! - Copyright ORBIFLY December 2007 - Disclaimer

ORBIFLY MET'MAP TEAM :

Programming & Development : Alexandra Zaïnal
Concept & Development : Baudouin d'Aumeries
Co-Development & Prog : Marc-Olivier Méhu
Technical & hardware support : Manuel Goepfert

Contact : metmap@orbifly.com




SOURCES & CREDITS :

   NOAA